KRHI/RHI METAR and TAF weather

Enter ICAO airport designator
Station Type Date Time Source
KRHI METAR 2021/09/20 03:53 UTC NOAA

KRHI 200353Z AUTO 16006KT 10SM CLR 21/17 A2997 RMK AO2 SLP141 T02060167 TSNO


Station Type Date Time Source
KRHI Decoded METAR 2021/09/20 03:53 UTC NOAA

RHINELANDER-ONEIDA CO AIRPORT , WI, United States (KRHI) 45-38N 89-29W 485M
Sep 19, 2021 - 11:53 PM EDT / 2021.09.20 0353 UTC
Wind: from the SSE (160 degrees) at 7 MPH (6 KT):0
Visibility: 10 mile(s):0
Sky conditions: clear
Temperature: 69.1 F (20.6 C)
Dew Point: 62.1 F (16.7 C)
Relative Humidity: 78%
Pressure (altimeter): 29.97 in. Hg (1014 hPa)
ob: KRHI 200353Z AUTO 16006KT 10SM CLR 21/17 A2997 RMK AO2 SLP141 T02060167 TSNO
cycle: 4

Station Type Date Time Source
KRHI TAF 2021/09/19 18:27 UTC NOAA

TAF KRHI 191725Z 1918/2018 19011G19KT P6SM FEW050
FM200000 18008KT P6SM SCT250 WS020/19030KT
FM200300 16006KT P6SM SCT250 WS020/20035KT
FM200800 18007KT P6SM SCT250 WS020/21040KT
FM201200 18009KT P6SM SCT010 BKN200 WS020/19040KT
FM201600 18014G23KT P6SM BKN035

Example: see airport list